createdAt,value
2023-05-10T00:00:49.460Z,100367.03
2023-05-10T00:03:51.859Z,100362.91
2023-05-10T00:06:54.806Z,100350.50
2023-05-10T00:09:57.161Z,100350.06
2023-05-10T00:12:59.402Z,100341.69
2023-05-10T00:16:01.813Z,100355.25
2023-05-10T00:19:04.144Z,100355.94
2023-05-10T00:22:06.430Z,100345.63
2023-05-10T00:25:09.522Z,100338.94
2023-05-10T00:28:11.858Z,100352.75
2023-05-10T00:31:15.747Z,100355.78
2023-05-10T00:34:18.088Z,100347.41
2023-05-10T00:37:20.845Z,100345.50
2023-05-10T00:40:23.304Z,100351.47
2023-05-10T00:43:30.262Z,100337.94
2023-05-10T00:46:32.787Z,100338.50
2023-05-10T00:49:36.359Z,100352.03
2023-05-10T00:52:38.781Z,100354.38
2023-05-10T00:55:41.094Z,100342.50
2023-05-10T00:58:43.869Z,100347.88
2023-05-10T01:01:46.899Z,100346.63
2023-05-10T01:04:50.106Z,100327.06
2023-05-10T01:07:52.382Z,100335.94
2023-05-10T01:10:55.167Z,100321.28
2023-05-10T01:13:58.891Z,100338.47
2023-05-10T01:17:01.653Z,100334.31
2023-05-10T01:20:04.216Z,100337.00
2023-05-10T01:23:37.412Z,100341.25
2023-05-10T01:26:42.662Z,100333.81
2023-05-10T01:30:17.672Z,100325.00
2023-05-10T01:33:29.854Z,100319.78
2023-05-10T01:36:35.993Z,100330.03
2023-05-10T01:39:46.146Z,100319.88
2023-05-10T01:42:56.572Z,100324.91
2023-05-10T01:46:11.461Z,100326.28
2023-05-10T01:49:41.517Z,100323.34
2023-05-10T01:52:46.445Z,100317.69
2023-05-10T01:55:51.403Z,100319.56
2023-05-10T01:58:54.272Z,100313.22
2023-05-10T02:01:59.120Z,100308.97
2023-05-10T02:05:01.631Z,100305.41
2023-05-10T02:08:07.309Z,100313.84
2023-05-10T02:11:12.319Z,100304.59
2023-05-10T02:14:16.415Z,100301.53
2023-05-10T02:17:19.240Z,100306.41
2023-05-10T02:20:22.130Z,100297.59
2023-05-10T02:23:24.861Z,100304.91
2023-05-10T02:26:27.457Z,100289.06
2023-05-10T02:29:30.072Z,100298.09
2023-05-10T02:32:32.561Z,100289.44
2023-05-10T02:35:36.164Z,100292.34
2023-05-10T02:38:38.841Z,100306.78
2023-05-10T02:41:42.655Z,100304.59
2023-05-10T02:44:47.039Z,100305.91
2023-05-10T02:47:51.105Z,100299.91
2023-05-10T02:50:54.187Z,100306.47
2023-05-10T02:53:57.733Z,100305.44
2023-05-10T02:57:02.439Z,100297.13
2023-05-10T03:00:05.231Z,100307.69
2023-05-10T03:03:07.982Z,100305.75
2023-05-10T03:06:10.680Z,100302.59
2023-05-10T03:09:16.277Z,100315.00
2023-05-10T03:12:33.809Z,100311.09
2023-05-10T03:16:07.712Z,100310.06
2023-05-10T03:19:18.946Z,100304.97
2023-05-10T03:22:33.486Z,100317.56
2023-05-10T03:25:36.275Z,100294.72
2023-05-10T03:28:41.903Z,100296.31
2023-05-10T03:31:44.577Z,100297.47
2023-05-10T03:34:46.968Z,100294.59
2023-05-10T03:37:49.302Z,100303.44
2023-05-10T03:40:51.808Z,100298.75
2023-05-10T03:43:54.622Z,100299.16
2023-05-10T03:46:57.974Z,100303.22
2023-05-10T03:50:00.630Z,100303.97
2023-05-10T03:53:03.313Z,100304.53
2023-05-10T03:56:05.888Z,100307.94
2023-05-10T03:59:09.811Z,100299.59
2023-05-10T04:02:12.178Z,100301.19
2023-05-10T04:05:14.492Z,100300.69
2023-05-10T04:08:18.004Z,100303.16
2023-05-10T04:11:23.006Z,100299.56
2023-05-10T04:14:25.708Z,100295.78
2023-05-10T04:17:28.120Z,100296.03
2023-05-10T04:20:30.481Z,100293.72
2023-05-10T04:23:32.810Z,100298.56
2023-05-10T04:26:35.084Z,100306.78
2023-05-10T04:29:37.324Z,100294.19
2023-05-10T04:32:39.674Z,100315.53
2023-05-10T04:35:42.156Z,100306.28
2023-05-10T04:38:44.882Z,100298.09
2023-05-10T04:41:47.177Z,100300.19
2023-05-10T04:44:49.447Z,100308.88
2023-05-10T04:47:51.741Z,100309.75
2023-05-10T04:50:53.993Z,100311.44
2023-05-10T04:54:05.329Z,100302.19
2023-05-10T04:57:09.058Z,100299.72
2023-05-10T05:00:12.028Z,100309.84
2023-05-10T05:03:14.418Z,100303.19
2023-05-10T05:06:16.701Z,100307.34
2023-05-10T05:09:19.023Z,100319.03
2023-05-10T05:12:21.318Z,100317.09
2023-05-10T05:15:23.667Z,100318.22
2023-05-10T05:18:25.903Z,100314.75
2023-05-10T05:21:28.342Z,100313.63
2023-05-10T05:24:30.637Z,100317.25
2023-05-10T05:27:33.364Z,100310.38
2023-05-10T05:30:35.688Z,100319.09
2023-05-10T05:33:38.232Z,100315.44
2023-05-10T05:36:44.145Z,100326.44
2023-05-10T05:39:46.717Z,100319.56
2023-05-10T05:42:49.083Z,100314.34
2023-05-10T05:45:53.393Z,100329.53
2023-05-10T05:48:55.680Z,100325.41
2023-05-10T05:52:04.999Z,100332.41
2023-05-10T05:55:07.542Z,100336.94
2023-05-10T05:58:09.855Z,100339.09
2023-05-10T06:01:12.079Z,100349.03
2023-05-10T06:04:15.952Z,100355.31
2023-05-10T06:07:18.335Z,100349.91
2023-05-10T06:10:20.668Z,100341.94
2023-05-10T06:13:23.020Z,100342.72
2023-05-10T06:16:25.368Z,100339.25
2023-05-10T06:19:28.366Z,100337.91
2023-05-10T06:22:30.755Z,100335.72
2023-05-10T06:25:33.147Z,100344.63
2023-05-10T06:28:35.482Z,100348.22
2023-05-10T06:31:37.808Z,100336.56
2023-05-10T06:34:40.104Z,100345.91
2023-05-10T06:37:42.382Z,100347.44
2023-05-10T06:40:44.955Z,100347.75
2023-05-10T06:43:47.233Z,100347.41
2023-05-10T06:46:49.579Z,100354.09
2023-05-10T06:49:52.215Z,100359.91
2023-05-10T06:52:54.522Z,100343.69
2023-05-10T06:55:56.823Z,100352.53
2023-05-10T06:58:59.041Z,100342.69
2023-05-10T07:02:01.510Z,100340.41
2023-05-10T07:05:05.807Z,100342.75
2023-05-10T07:08:08.548Z,100343.91
2023-05-10T07:11:11.717Z,100340.25
2023-05-10T07:14:14.015Z,100348.50
2023-05-10T07:17:16.388Z,100348.47
2023-05-10T07:20:21.614Z,100338.31
2023-05-10T07:23:23.936Z,100339.75
2023-05-10T07:26:26.288Z,100343.84
2023-05-10T07:29:29.515Z,100336.72
2023-05-10T07:32:32.556Z,100326.69
2023-05-10T07:35:35.026Z,100326.00
2023-05-10T07:38:38.981Z,100318.00
2023-05-10T07:41:43.130Z,100324.88
2023-05-10T07:44:46.551Z,100314.81
2023-05-10T07:47:48.976Z,100323.84
2023-05-10T07:50:51.266Z,100315.50
2023-05-10T07:53:54.059Z,100316.41
2023-05-10T07:56:56.490Z,100329.72
2023-05-10T07:59:58.748Z,100326.38
2023-05-10T08:03:01.134Z,100329.66
2023-05-10T08:06:04.560Z,100322.66
2023-05-10T08:09:07.389Z,100322.69
2023-05-10T08:12:09.692Z,100329.78
2023-05-10T08:15:11.973Z,100332.84
2023-05-10T08:18:14.577Z,100329.44
2023-05-10T08:21:17.429Z,100321.75
2023-05-10T08:24:19.701Z,100322.19
2023-05-10T08:27:21.938Z,100331.31
2023-05-10T08:30:24.361Z,100328.44
2023-05-10T08:33:26.962Z,100334.69
2023-05-10T08:36:29.420Z,100322.41
2023-05-10T08:39:35.731Z,100317.63
2023-05-10T08:42:41.353Z,100325.09
2023-05-10T08:45:46.447Z,100317.91
2023-05-10T08:48:50.836Z,100318.13
2023-05-10T08:51:56.122Z,100314.25
2023-05-10T08:54:58.456Z,100320.03
2023-05-10T08:58:01.476Z,100318.03
2023-05-10T09:01:04.101Z,100321.28
2023-05-10T09:04:06.453Z,100313.63
2023-05-10T09:07:09.016Z,100321.28
2023-05-10T09:10:12.809Z,100322.09
2023-05-10T09:13:16.710Z,100325.78
2023-05-10T09:16:21.658Z,100322.19
2023-05-10T09:19:24.885Z,100319.44
2023-05-10T09:22:27.947Z,100312.97
2023-05-10T09:25:30.407Z,100311.59
2023-05-10T09:28:34.428Z,100310.78
2023-05-10T09:31:52.156Z,100315.41
2023-05-10T09:34:54.521Z,100303.06
2023-05-10T09:37:59.192Z,100304.53
2023-05-10T09:41:03.637Z,100300.34
2023-05-10T09:44:06.378Z,100307.88
2023-05-10T09:47:08.671Z,100297.03
2023-05-10T09:50:11.356Z,100299.72
2023-05-10T09:53:16.485Z,100304.16
2023-05-10T09:56:38.208Z,100302.75
2023-05-10T09:59:43.971Z,100294.38
2023-05-10T10:02:47.634Z,100296.53
2023-05-10T10:05:50.491Z,100286.78
2023-05-10T10:08:54.462Z,100279.16
2023-05-10T10:12:00.061Z,100279.78
2023-05-10T10:15:02.447Z,100264.44
2023-05-10T10:18:06.533Z,100269.00
2023-05-10T10:21:09.817Z,100256.03
2023-05-10T10:24:12.077Z,100256.94
2023-05-10T10:27:52.863Z,100259.75
2023-05-10T10:30:56.398Z,100260.06
2023-05-10T10:34:06.035Z,100265.69
2023-05-10T10:37:08.332Z,100248.50
2023-05-10T10:40:27.883Z,100255.38
2023-05-10T10:43:30.654Z,100256.34
2023-05-10T10:46:35.570Z,100249.59
2023-05-10T10:49:40.931Z,100246.84
2023-05-10T10:52:47.141Z,100256.78
2023-05-10T10:56:07.616Z,100249.44
2023-05-10T10:59:10.032Z,100219.47
2023-05-10T11:02:55.095Z,100225.38
2023-05-10T11:05:59.766Z,100218.34
2023-05-10T11:09:12.557Z,100231.41
2023-05-10T11:12:14.899Z,100212.19
2023-05-10T11:15:17.386Z,100211.88
2023-05-10T11:18:29.924Z,100218.22
2023-05-10T11:21:33.733Z,100199.78
2023-05-10T11:24:36.912Z,100202.91
2023-05-10T11:27:39.367Z,100211.94
2023-05-10T11:30:43.287Z,100205.97
2023-05-10T11:33:48.627Z,100215.75
2023-05-10T11:36:55.284Z,100211.81
2023-05-10T11:39:57.507Z,100207.25
2023-05-10T11:43:00.228Z,100203.81
2023-05-10T11:46:02.946Z,100197.25
2023-05-10T11:49:08.005Z,100198.06
2023-05-10T11:52:12.108Z,100197.50
2023-05-10T11:55:14.524Z,100186.16
2023-05-10T11:58:16.838Z,100189.31
2023-05-10T12:01:19.124Z,100202.41
2023-05-10T12:04:21.719Z,100195.63
2023-05-10T12:07:24.066Z,100200.84
2023-05-10T12:10:27.960Z,100196.47
2023-05-10T12:13:30.326Z,100192.72
2023-05-10T12:16:32.750Z,100203.41
2023-05-10T12:19:39.612Z,100199.19
2023-05-10T12:22:41.894Z,100201.19
2023-05-10T12:25:44.353Z,100190.53
2023-05-10T12:28:46.581Z,100196.09
2023-05-10T12:31:54.086Z,100192.66
2023-05-10T12:34:56.326Z,100186.28
2023-05-10T12:38:01.991Z,100180.88
2023-05-10T12:41:06.346Z,100194.59
2023-05-10T12:44:08.666Z,100184.97
2023-05-10T12:47:11.808Z,100163.72
2023-05-10T12:50:14.199Z,100168.16
2023-05-10T12:53:18.669Z,100166.16
2023-05-10T12:56:21.494Z,100156.16
2023-05-10T12:59:24.007Z,100161.72
2023-05-10T13:02:26.286Z,100164.34
2023-05-10T13:05:28.643Z,100153.41
2023-05-10T13:08:34.528Z,100139.44
2023-05-10T13:11:37.557Z,100149.84
2023-05-10T13:14:41.604Z,100145.88
2023-05-10T13:17:44.060Z,100148.63
2023-05-10T13:20:46.353Z,100143.38
2023-05-10T13:23:48.683Z,100126.84
2023-05-10T13:26:51.075Z,100121.31
2023-05-10T13:29:53.384Z,100107.53
2023-05-10T13:32:58.607Z,100121.66
2023-05-10T13:36:03.586Z,100113.47
2023-05-10T13:39:06.382Z,100111.88
2023-05-10T13:42:08.714Z,100111.88
2023-05-10T13:45:13.268Z,100101.91
2023-05-10T13:48:16.117Z,100102.56
2023-05-10T13:51:18.615Z,100107.03
2023-05-10T13:54:20.979Z,100092.38
2023-05-10T13:57:24.182Z,100096.97
2023-05-10T14:00:27.277Z,100095.88
2023-05-10T14:03:30.554Z,100088.47
2023-05-10T14:06:33.083Z,100086.88
2023-05-10T14:09:35.562Z,100072.16
2023-05-10T14:12:37.967Z,100081.28
2023-05-10T14:20:27.647Z,100078.56
2023-05-10T14:23:30.068Z,100073.97
2023-05-10T14:26:32.525Z,100071.25
2023-05-10T14:29:34.917Z,100068.53
2023-05-10T14:32:37.912Z,100067.34
2023-05-10T14:35:40.685Z,100068.56
2023-05-10T14:38:42.992Z,100051.59
2023-05-10T14:41:46.770Z,100058.69
2023-05-10T14:44:49.044Z,100082.31
2023-05-10T14:47:51.496Z,100080.41
2023-05-10T14:50:53.949Z,100073.31
2023-05-10T14:53:56.534Z,100065.09
2023-05-10T14:56:59.437Z,100074.09
2023-05-10T15:00:01.894Z,100063.47
2023-05-10T15:03:04.997Z,100084.50
2023-05-10T15:06:09.248Z,100083.38
2023-05-10T15:09:11.567Z,100071.44
2023-05-10T15:12:13.904Z,100079.84
2023-05-10T15:15:16.706Z,100071.41
2023-05-10T15:18:19.220Z,100061.53
2023-05-10T15:21:21.611Z,100079.38
2023-05-10T15:24:23.914Z,100074.50
2023-05-10T15:27:26.936Z,100070.19
2023-05-10T15:30:30.020Z,100071.31
2023-05-10T15:33:32.312Z,100071.31
2023-05-10T15:36:34.563Z,100051.66
2023-05-10T15:39:36.877Z,100075.06
2023-05-10T15:42:39.408Z,100060.09
2023-05-10T15:45:41.692Z,100065.81
2023-05-10T15:48:43.992Z,100074.44
2023-05-10T15:51:46.241Z,100061.31
2023-05-10T15:54:48.528Z,100060.75
2023-05-10T15:57:51.455Z,100062.69
2023-05-10T16:00:53.785Z,100055.66
2023-05-10T16:03:55.943Z,100050.03
2023-05-10T16:06:58.212Z,100058.59
2023-05-10T16:10:04.127Z,100062.97
2023-05-10T16:13:06.488Z,100060.00
2023-05-10T16:16:09.091Z,100054.94
2023-05-10T16:19:11.541Z,100068.97
2023-05-10T16:22:14.342Z,100071.13
2023-05-10T16:25:17.100Z,100063.88
2023-05-10T16:28:21.195Z,100066.13
2023-05-10T16:31:23.579Z,100065.56
2023-05-10T16:34:25.945Z,100068.34
2023-05-10T16:37:28.539Z,100065.66
2023-05-10T16:40:31.476Z,100066.25
2023-05-10T16:43:33.812Z,100076.56
2023-05-10T16:46:36.641Z,100073.38
2023-05-10T16:49:38.903Z,100076.66
2023-05-10T16:52:41.448Z,100086.59
2023-05-10T16:55:43.723Z,100072.84
2023-05-10T16:58:47.659Z,100079.63
2023-05-10T17:01:50.062Z,100085.31
2023-05-10T17:04:54.932Z,100074.00
2023-05-10T17:07:57.240Z,100086.44
2023-05-10T17:11:03.950Z,100097.81
2023-05-10T17:14:06.488Z,100086.78
2023-05-10T17:17:08.828Z,100094.59
2023-05-10T17:20:11.361Z,100093.56
2023-05-10T17:23:13.688Z,100087.69
2023-05-10T17:26:17.130Z,100094.94
2023-05-10T17:29:19.382Z,100101.09
2023-05-10T17:32:21.671Z,100107.31
2023-05-10T17:35:24.010Z,100097.84
2023-05-10T17:38:26.386Z,100099.47
2023-05-10T17:41:28.956Z,100113.22
2023-05-10T17:44:31.378Z,100103.56
2023-05-10T17:47:34.342Z,100109.25
2023-05-10T17:50:41.723Z,100106.00
2023-05-10T17:53:44.630Z,100103.06
2023-05-10T17:56:46.885Z,100107.06
2023-05-10T17:59:49.143Z,100121.69
2023-05-10T18:02:51.391Z,100132.47
2023-05-10T18:05:55.321Z,100123.59
2023-05-10T18:08:57.811Z,100127.06
2023-05-10T18:12:02.433Z,100134.09
2023-05-10T18:15:05.434Z,100126.56
2023-05-10T18:18:07.901Z,100130.13
2023-05-10T18:21:10.489Z,100143.84
2023-05-10T18:24:12.876Z,100126.31
2023-05-10T18:27:15.425Z,100140.34
2023-05-10T18:30:18.538Z,100143.56
2023-05-10T18:33:20.864Z,100143.06
2023-05-10T18:36:23.616Z,100154.09
2023-05-10T18:39:25.930Z,100143.88
2023-05-10T18:42:28.295Z,100141.97
2023-05-10T18:45:30.526Z,100153.81
2023-05-10T18:48:32.851Z,100154.38
2023-05-10T18:51:35.174Z,100158.94
2023-05-10T18:54:37.435Z,100167.31
2023-05-10T18:57:41.882Z,100170.25
2023-05-10T19:00:44.228Z,100162.13
2023-05-10T19:03:46.459Z,100155.66
2023-05-10T19:06:48.821Z,100173.44
2023-05-10T19:09:51.102Z,100171.34
2023-05-10T19:12:53.512Z,100173.75
2023-05-10T19:16:16.871Z,100174.25
2023-05-10T19:19:20.278Z,100171.28
2023-05-10T19:22:36.121Z,100181.28
2023-05-10T19:25:46.373Z,100179.06
2023-05-10T19:28:52.059Z,100175.03
2023-05-10T19:31:54.458Z,100178.81
2023-05-10T19:34:56.867Z,100171.56
2023-05-10T19:37:59.269Z,100181.75
2023-05-10T19:41:01.545Z,100176.09
2023-05-10T19:44:03.915Z,100179.31
2023-05-10T19:47:06.409Z,100165.88
2023-05-10T19:50:09.070Z,100177.69
2023-05-10T19:53:11.404Z,100160.47
2023-05-10T19:56:14.331Z,100175.00
2023-05-10T19:59:16.586Z,100169.38
2023-05-10T20:02:18.820Z,100165.88
2023-05-10T20:05:21.748Z,100173.94
2023-05-10T20:08:25.580Z,100167.94
2023-05-10T20:11:27.846Z,100174.13
2023-05-10T20:14:30.115Z,100164.47
2023-05-10T20:17:32.424Z,100166.59
2023-05-10T20:20:34.773Z,100172.25
2023-05-10T20:23:37.246Z,100164.19
2023-05-10T20:26:40.537Z,100175.22
2023-05-10T20:29:42.814Z,100171.75
2023-05-10T20:32:45.119Z,100165.28
2023-05-10T20:35:47.455Z,100180.34
2023-05-10T20:38:49.711Z,100171.69
2023-05-10T20:41:53.847Z,100180.59
2023-05-10T20:44:56.187Z,100169.53
2023-05-10T20:47:58.594Z,100170.06
2023-05-10T20:51:02.260Z,100181.28
2023-05-10T20:54:04.881Z,100167.34
2023-05-10T20:57:07.475Z,100163.84
2023-05-10T21:00:10.409Z,100161.13
2023-05-10T21:03:14.224Z,100171.16
2023-05-10T21:06:16.524Z,100164.09
2023-05-10T21:09:18.859Z,100168.66
2023-05-10T21:12:21.166Z,100165.44
2023-05-10T21:15:24.541Z,100171.06
2023-05-10T21:18:26.919Z,100162.97
2023-05-10T21:21:29.459Z,100177.00
2023-05-10T21:24:31.765Z,100161.56
2023-05-10T21:27:34.960Z,100166.31
2023-05-10T21:30:37.187Z,100164.97
2023-05-10T21:33:39.454Z,100163.63
2023-05-10T21:36:41.763Z,100164.19
2023-05-10T21:39:44.389Z,100169.28
2023-05-10T21:42:49.652Z,100162.84
2023-05-10T21:45:52.047Z,100167.69
2023-05-10T21:48:54.377Z,100169.41
2023-05-10T21:51:56.820Z,100161.25
2023-05-10T21:54:59.166Z,100173.66
2023-05-10T21:58:01.416Z,100182.56
2023-05-10T22:01:03.776Z,100172.59
2023-05-10T22:04:06.084Z,100175.75
2023-05-10T22:07:08.366Z,100183.75
2023-05-10T22:10:10.841Z,100181.88
2023-05-10T22:13:13.117Z,100182.22
2023-05-10T22:16:15.571Z,100171.34
2023-05-10T22:19:18.005Z,100185.63
2023-05-10T22:22:20.610Z,100185.63
2023-05-10T22:25:23.035Z,100184.78
2023-05-10T22:28:25.462Z,100197.91
2023-05-10T22:31:27.986Z,100175.81
2023-05-10T22:34:30.303Z,100177.97
2023-05-10T22:37:32.532Z,100198.69
2023-05-10T22:40:34.789Z,100185.19
2023-05-10T22:43:37.045Z,100195.19
2023-05-10T22:46:39.322Z,100188.19
2023-05-10T22:49:41.571Z,100180.91
2023-05-10T22:52:43.843Z,100186.28
2023-05-10T22:55:47.100Z,100193.28
2023-05-10T22:58:50.763Z,100195.63
2023-05-10T23:01:53.107Z,100193.81
2023-05-10T23:04:55.739Z,100182.38
2023-05-10T23:07:58.009Z,100188.31
2023-05-10T23:11:00.364Z,100195.56
2023-05-10T23:14:02.673Z,100195.38
2023-05-10T23:17:04.939Z,100197.50
2023-05-10T23:20:07.790Z,100192.66
2023-05-10T23:23:10.921Z,100193.66
2023-05-10T23:26:13.172Z,100190.97
2023-05-10T23:29:15.456Z,100195.47
2023-05-10T23:32:18.065Z,100186.56
2023-05-10T23:35:20.368Z,100191.72
2023-05-10T23:38:22.659Z,100188.38
2023-05-10T23:41:26.447Z,100200.16
2023-05-10T23:44:28.779Z,100201.63
2023-05-10T23:47:31.027Z,100202.56
2023-05-10T23:50:33.297Z,100208.75
2023-05-10T23:53:35.635Z,100201.72
2023-05-10T23:56:37.873Z,100200.59
2023-05-10T23:59:40.119Z,100212.06
